createdAt,value
2022-09-14T00:02:01.882Z,79
2022-09-14T00:12:01.922Z,79
2022-09-14T00:22:02.572Z,80
2022-09-14T00:32:02.834Z,80
2022-09-14T00:42:03.599Z,80
2022-09-14T00:52:04.635Z,80
2022-09-14T01:02:04.948Z,80
2022-09-14T01:12:05.591Z,80
2022-09-14T01:22:06.682Z,80
2022-09-14T01:32:07.011Z,80
2022-09-14T01:42:08.046Z,80
2022-09-14T01:52:08.502Z,81
2022-09-14T02:02:09.309Z,81
2022-09-14T02:12:10.161Z,81
2022-09-14T02:42:12.007Z,82
2022-09-14T03:32:13.357Z,84
2022-09-14T03:42:13.873Z,84
2022-09-14T03:52:14.712Z,84
2022-09-14T04:02:15.346Z,84
2022-09-14T04:22:16.642Z,87
2022-09-14T04:32:17.221Z,88
2022-09-14T05:12:18.931Z,93
2022-09-14T05:32:19.824Z,94
2022-09-14T05:42:20.302Z,95
2022-09-14T06:12:22.095Z,96
2022-09-14T06:22:22.882Z,97
2022-09-14T06:32:23.709Z,97
2022-09-14T06:42:23.819Z,98
2022-09-14T06:52:24.268Z,98
2022-09-14T07:02:25.238Z,98
2022-09-14T07:12:26.166Z,99
2022-09-14T07:28:39.289Z,100
2022-09-14T07:37:11.652Z,99
2022-09-14T07:47:12.415Z,100
2022-09-14T07:57:12.664Z,100
2022-09-14T08:07:13.475Z,100
2022-09-14T08:17:14.154Z,100
2022-09-14T08:27:17.195Z,100
2022-09-14T08:37:15.719Z,100
2022-09-14T08:47:16.308Z,100
2022-09-14T08:57:17.319Z,100
2022-09-14T09:07:17.625Z,100
2022-09-14T09:17:18.225Z,100
2022-09-14T09:27:18.890Z,100
2022-09-14T09:37:18.985Z,100
2022-09-14T09:47:20.017Z,100
2022-09-14T09:57:20.317Z,100
2022-09-14T10:07:21.146Z,100
2022-09-14T10:17:21.461Z,100
2022-09-14T10:27:21.934Z,100
2022-09-14T10:37:22.288Z,100
2022-09-14T10:47:23.116Z,100
2022-09-14T10:57:23.900Z,100
2022-09-14T11:07:24.481Z,100
2022-09-14T11:17:24.771Z,100
2022-09-14T11:27:24.890Z,100
2022-09-14T11:37:25.132Z,100
2022-09-14T11:47:26.153Z,100
2022-09-14T12:07:26.973Z,100
2022-09-14T12:17:39.197Z,100
2022-09-14T12:27:28.237Z,100
2022-09-14T12:47:29.412Z,100
2022-09-14T13:17:30.720Z,100
2022-09-14T13:27:31.553Z,100
2022-09-14T13:37:32.599Z,100
2022-09-14T13:47:33.567Z,100
2022-09-14T13:57:34.390Z,100
2022-09-14T14:07:34.515Z,100
2022-09-14T14:17:34.915Z,100
2022-09-14T14:27:35.206Z,100
2022-09-14T14:37:35.660Z,100
2022-09-14T14:47:35.974Z,100
2022-09-14T14:57:36.775Z,100
2022-09-14T15:17:37.847Z,100
2022-09-14T15:27:38.901Z,100
2022-09-14T15:37:39.649Z,100
2022-09-14T15:47:40.394Z,100
2022-09-14T15:57:40.624Z,100
2022-09-14T16:07:41.492Z,100
2022-09-14T16:17:42.205Z,100
2022-09-14T16:27:42.354Z,99
2022-09-14T16:37:43.296Z,99
2022-09-14T16:47:43.956Z,99
2022-09-14T16:57:44.043Z,100
2022-09-14T17:07:44.806Z,100
2022-09-14T17:17:45.063Z,100
2022-09-14T17:27:45.469Z,100
2022-09-14T17:37:46.418Z,100
2022-09-14T17:47:46.989Z,100
2022-09-14T17:57:47.999Z,100
2022-09-14T18:07:48.384Z,100
2022-09-14T18:17:48.803Z,100
2022-09-14T18:27:49.605Z,100
2022-09-14T18:47:50.906Z,100
2022-09-14T18:57:51.624Z,100
2022-09-14T19:07:51.976Z,100
2022-09-14T19:17:52.372Z,100
2022-09-14T19:27:53.404Z,100
2022-09-14T19:37:53.768Z,100
2022-09-14T19:47:54.173Z,100
2022-09-14T19:57:54.439Z,100
2022-09-14T20:07:55.441Z,100
2022-09-14T20:17:56.099Z,100
2022-09-14T20:27:57.174Z,100
2022-09-14T20:37:57.927Z,100
2022-09-14T20:47:58.971Z,100
2022-09-14T20:57:59.503Z,100
2022-09-14T21:07:59.587Z,100
2022-09-14T21:18:00.677Z,100
2022-09-14T21:28:00.846Z,100
2022-09-14T21:48:01.206Z,100
2022-09-14T22:08:02.864Z,100
2022-09-14T22:18:03.835Z,100
2022-09-14T22:28:04.023Z,100
2022-09-14T22:38:04.551Z,100
2022-09-14T22:48:05.047Z,100
2022-09-14T22:58:05.654Z,100
2022-09-14T22:58:27.559Z,100
2022-09-14T23:08:12.129Z,100
2022-09-14T23:18:12.984Z,100
2022-09-14T23:28:13.722Z,100
2022-09-14T23:38:14.246Z,100
2022-09-14T23:48:14.477Z,100
2022-09-14T23:58:15.273Z,100
